LIMJ/GOA METAR and TAF weather

Enter ICAO airport designator
Station Type Date Time Source
LIMJ METAR 2020/06/05 08:20 UTC NOAA

LIMJ 050820Z 11006KT 080V140 9999 SCT025 20/15 Q0997


Station Type Date Time Source
LIMJ Decoded METAR 2020/06/05 08:20 UTC NOAA

Genova / Sestri, Italy (LIMJ) 44-25N 008-51E 3M
Jun 05, 2020 - 04:20 AM EDT / 2020.06.05 0820 UTC
Wind: from the ESE (110 degrees) at 7 MPH (6 KT) (direction variable):0
Visibility: greater than 7 mile(s):0
Sky conditions: partly cloudy
Temperature: 68 F (20 C)
Dew Point: 59 F (15 C)
Relative Humidity: 72%
Pressure (altimeter): 29.44 in. Hg (0997 hPa)
ob: LIMJ 050820Z 11006KT 080V140 9999 SCT025 20/15 Q0997
cycle: 8

Station Type Date Time Source
LIMJ TAF 2020/06/05 06:25 UTC NOAA

TAF LIMJ 050500Z 0506/0606 01005KT 9999 SCT030

Example: see airport list